Terminal Aerodrome Forecast
Issued by NWS

Home | Current Version | Previous Version | Text Only | Print | Product List | Glossary On
Versions: 1 2 3 4 5 6 7 8 9 10 11 12 13
000
FTUS45 KRIW 222336
TAFCPR
TAF
KCPR 222336Z 2300/2324 07010KT P6SM -RA SCT030 BKN045
     FM230200 04012KT P6SM SCT015 BKN025
     FM230600 04008KT 5SM -RA SCT003 BKN008 OVC015
     FM231600 03012G20KT 5SM -RA SCT009 BKN015 OVC030=

USA.gov is the U.S. government's official web portal to all federal, state and local government web resources and services.